Time;durP1;ratioP1;P1;durP2;ratioP2;P2;SDS_P1;SDS_P2;PMS_P1;PMS_P2;Temp;Humidity;BMP_temperature;BMP_pressure;BME280_temperature;BME280_humidity;BME280_pressure;Samples;Min_cycle;Max_cycle;Signal;HPM_P1;HPM_P2
2023/10/16 00:00:29;;;;;;;2.08;1.88;;;10.60;73.90;;;;;;5026946;28;20042;-76
2023/10/16 00:02:59;;;;;;;2.00;1.65;;;10.60;73.90;;;;;;5025303;28;20025;-75
2023/10/16 00:05:51;;;;;;;1.70;1.60;;;10.60;73.90;;;;;;5026204;28;20080;-75
2023/10/16 00:08:18;;;;;;;2.40;1.70;;;10.60;73.90;;;;;;5029626;28;20021;-75
2023/10/16 00:10:57;;;;;;;2.78;1.90;;;10.60;73.90;;;;;;5029104;28;20543;-75
2023/10/16 00:13:27;;;;;;;2.50;1.98;;;10.60;73.90;;;;;;4994345;28;20021;-76
2023/10/16 00:15:55;;;;;;;2.80;2.13;;;10.50;73.90;;;;;;5028564;28;20038;-76
2023/10/16 00:18:35;;;;;;;2.35;2.05;;;10.50;73.90;;;;;;5025816;28;20471;-75
2023/10/16 00:21:05;;;;;;;2.38;1.90;;;10.50;73.90;;;;;;5027133;28;20124;-76
2023/10/16 00:23:37;;;;;;;1.88;1.67;;;10.50;73.90;;;;;;4997832;28;20057;-76
2023/10/16 00:26:06;;;;;;;2.20;1.90;;;10.50;73.90;;;;;;5028617;28;20084;-76
2023/10/16 00:28:36;;;;;;;2.55;2.10;;;10.50;73.90;;;;;;5028000;28;20026;-75
2023/10/16 00:31:03;;;;;;;2.33;2.00;;;10.40;73.90;;;;;;5028524;28;20041;-77
2023/10/16 00:33:31;;;;;;;3.38;2.00;;;10.40;73.90;;;;;;5009921;28;20315;-76
2023/10/16 00:35:59;;;;;;;2.28;1.92;;;10.40;73.90;;;;;;5030721;28;20035;-75
2023/10/16 00:38:26;;;;;;;2.95;2.30;;;10.40;73.90;;;;;;5027850;28;20042;-76
2023/10/16 00:41:17;;;;;;;2.30;1.88;;;10.40;73.90;;;;;;5026889;28;20052;-76
2023/10/16 00:43:45;;;;;;;1.77;1.67;;;10.40;73.90;;;;;;5027808;28;20072;-76
2023/10/16 00:47:11;;;;;;;2.63;2.00;;;10.40;73.90;;;;;;5024322;28;20030;-75
2023/10/16 00:49:18;;;;;;;1.92;1.73;;;10.40;74.00;;;;;;5024614;28;20037;-75
2023/10/16 00:51:45;;;;;;;2.25;1.85;;;10.40;73.90;;;;;;5024799;28;20036;-75
2023/10/16 00:54:19;;;;;;;2.97;2.20;;;10.40;73.90;;;;;;5029179;28;20025;-75
2023/10/16 00:56:46;;;;;;;2.72;2.00;;;10.30;73.90;;;;;;5022715;28;20030;-75
2023/10/16 00:59:16;;;;;;;2.13;1.83;;;10.40;74.00;;;;;;5025268;28;20103;-75
2023/10/16 01:01:46;;;;;;;2.05;1.73;;;10.30;74.00;;;;;;5025080;28;20037;-76
2023/10/16 01:04:17;;;;;;;2.80;1.98;;;10.40;74.00;;;;;;5027615;28;20054;-75
2023/10/16 01:06:44;;;;;;;2.00;1.85;;;10.30;74.00;;;;;;5013660;28;20520;-76
2023/10/16 01:09:12;;;;;;;2.00;1.75;;;10.30;74.00;;;;;;5028474;28;20061;-76
2023/10/16 01:11:38;;;;;;;1.90;1.80;;;10.30;74.00;;;;;;5030947;28;20490;-76
2023/10/16 01:14:05;;;;;;;2.97;2.17;;;10.30;74.00;;;;;;5015300;28;20061;-77
2023/10/16 01:16:31;;;;;;;2.00;1.80;;;10.30;74.00;;;;;;5030398;28;20024;-76
2023/10/16 01:19:03;;;;;;;2.22;2.00;;;10.30;74.00;;;;;;5030709;28;20036;-75
2023/10/16 01:21:31;;;;;;;2.25;1.90;;;10.30;74.10;;;;;;5029818;28;20041;-76
2023/10/16 01:24:02;;;;;;;2.47;2.22;;;10.30;74.00;;;;;;5013917;28;20043;-76
2023/10/16 01:26:29;;;;;;;2.10;1.85;;;10.30;74.10;;;;;;5030301;28;20112;-76
2023/10/16 01:28:55;;;;;;;2.10;1.83;;;10.30;74.10;;;;;;5028223;28;20486;-76
2023/10/16 01:31:21;;;;;;;2.33;1.95;;;10.30;74.00;;;;;;5036822;28;20103;-75
2023/10/16 01:33:48;;;;;;;2.33;1.88;;;10.30;74.00;;;;;;5034314;28;20021;-76
2023/10/16 01:36:14;;;;;;;2.10;1.90;;;10.30;74.10;;;;;;5041030;28;20094;-76
2023/10/16 01:38:40;;;;;;;2.17;1.83;;;10.30;74.00;;;;;;5014968;28;20029;-76
2023/10/16 01:41:08;;;;;;;2.47;1.92;;;10.30;74.10;;;;;;5013923;28;20033;-76
2023/10/16 01:43:38;;;;;;;3.05;2.00;;;10.20;74.00;;;;;;5029104;28;20034;-76
2023/10/16 01:46:08;;;;;;;2.22;1.88;;;10.20;74.00;;;;;;5013493;28;20113;-76
2023/10/16 01:48:39;;;;;;;2.45;2.03;;;10.20;74.10;;;;;;5025911;28;20026;-76
2023/10/16 01:51:11;;;;;;;2.60;1.92;;;10.20;74.10;;;;;;5030669;28;20067;-76
2023/10/16 01:53:40;;;;;;;2.10;1.70;;;10.20;74.00;;;;;;5025097;28;20041;-75
2023/10/16 01:56:13;;;;;;;2.15;1.90;;;10.20;74.10;;;;;;5030840;28;20083;-76
2023/10/16 01:58:41;;;;;;;3.15;1.92;;;10.20;74.10;;;;;;5026621;28;20386;-75
2023/10/16 02:01:21;;;;;;;2.20;1.90;;;10.20;74.10;;;;;;5030776;28;20080;-76
2023/10/16 02:03:49;;;;;;;2.70;2.08;;;10.20;74.10;;;;;;5025970;28;20085;-76
2023/10/16 02:06:16;;;;;;;2.10;1.90;;;10.20;74.10;;;;;;5025861;28;20497;-76
2023/10/16 02:08:44;;;;;;;2.65;1.95;;;10.20;74.10;;;;;;5011630;28;20383;-76
2023/10/16 02:11:13;;;;;;;2.50;1.80;;;10.20;74.10;;;;;;5028537;28;20064;-76
2023/10/16 02:13:40;;;;;;;2.60;2.17;;;10.20;74.10;;;;;;5011505;28;20033;-76
2023/10/16 02:16:10;;;;;;;2.13;1.85;;;10.20;74.10;;;;;;5026280;28;20425;-75
2023/10/16 02:18:40;;;;;;;2.20;1.90;;;10.20;74.20;;;;;;5039920;28;20490;-76
2023/10/16 02:21:08;;;;;;;2.13;1.80;;;10.20;74.10;;;;;;5027992;28;20072;-75
2023/10/16 02:23:34;;;;;;;2.70;2.00;;;10.20;74.20;;;;;;5026829;28;20061;-76
2023/10/16 02:26:01;;;;;;;2.70;1.77;;;10.20;74.10;;;;;;5028497;28;20037;-75
2023/10/16 02:28:31;;;;;;;2.75;2.00;;;10.20;74.10;;;;;;5011203;28;20113;-75
2023/10/16 02:31:13;;;;;;;1.73;1.63;;;10.20;74.20;;;;;;5026857;28;20033;-75
2023/10/16 02:33:44;;;;;;;2.03;1.70;;;10.20;74.20;;;;;;5028163;28;20152;-75
2023/10/16 02:36:10;;;;;;;2.35;1.83;;;10.20;74.10;;;;;;4996173;28;20544;-76
2023/10/16 02:38:36;;;;;;;1.90;1.75;;;10.20;74.10;;;;;;5026784;28;20052;-76
2023/10/16 02:41:03;;;;;;;1.98;1.70;;;10.20;74.20;;;;;;5013987;28;20115;-75
2023/10/16 02:43:30;;;;;;;2.60;1.80;;;10.20;74.20;;;;;;5012728;28;20025;-76
2023/10/16 02:45:56;;;;;;;2.45;1.90;;;10.20;74.20;;;;;;5027756;28;20038;-76
2023/10/16 02:48:23;;;;;;;2.55;1.80;;;10.20;74.20;;;;;;5028573;28;20104;-75
2023/10/16 02:50:50;;;;;;;2.03;1.80;;;10.20;74.20;;;;;;5029309;28;20048;-76
2023/10/16 02:53:23;;;;;;;2.42;2.03;;;10.20;74.20;;;;;;5041018;28;20036;-75
2023/10/16 02:55:53;;;;;;;2.75;2.00;;;10.20;74.30;;;;;;5010467;28;20100;-76
2023/10/16 02:58:24;;;;;;;2.03;1.83;;;10.20;74.20;;;;;;5025245;28;20037;-76
2023/10/16 03:00:55;;;;;;;2.10;1.90;;;10.20;74.30;;;;;;5025503;28;20064;-76
2023/10/16 03:03:24;;;;;;;1.80;1.70;;;10.20;74.20;;;;;;5023122;28;20026;-76
2023/10/16 03:05:55;;;;;;;2.38;1.85;;;10.20;74.20;;;;;;5028123;28;20030;-75
2023/10/16 03:08:30;;;;;;;3.08;2.05;;;10.20;74.30;;;;;;5026380;28;20044;-75
2023/10/16 03:11:00;;;;;;;2.15;1.88;;;10.20;74.20;;;;;;5027249;28;20061;-75
2023/10/16 03:13:26;;;;;;;1.80;1.70;;;10.20;74.30;;;;;;5026457;28;20021;-76
2023/10/16 03:16:04;;;;;;;1.95;1.80;;;10.20;74.20;;;;;;5026716;28;20036;-75
2023/10/16 03:18:30;;;;;;;2.65;1.75;;;10.20;74.20;;;;;;5027077;28;20026;-76
2023/10/16 03:23:43;;;;;;;2.38;1.83;;;10.20;74.30;;;;;;5027147;28;20044;-76
2023/10/16 03:26:32;;;;;;;2.53;1.88;;;10.20;74.20;;;;;;5024932;28;20064;-75
2023/10/16 03:29:00;;;;;;;2.10;1.67;;;10.20;74.30;;;;;;5027256;28;20091;-76
2023/10/16 03:31:30;;;;;;;2.78;1.83;;;10.20;74.20;;;;;;5011066;28;20029;-76
2023/10/16 03:33:58;;;;;;;2.20;1.90;;;10.20;74.30;;;;;;5031036;28;20025;-76
2023/10/16 03:36:24;;;;;;;2.35;1.80;;;10.20;74.30;;;;;;5008743;28;20082;-75
2023/10/16 03:38:50;;;;;;;2.03;1.77;;;10.20;74.30;;;;;;5029877;28;20420;-75
2023/10/16 03:43:47;;;;;;;2.00;1.80;;;10.20;74.30;;;;;;5010438;28;20079;-76
2023/10/16 03:46:13;;;;;;;2.00;1.77;;;10.20;74.30;;;;;;5022548;28;20027;-76
2023/10/16 03:48:39;;;;;;;1.98;1.63;;;10.20;74.30;;;;;;5026135;28;20025;-76
2023/10/16 03:51:08;;;;;;;2.70;1.70;;;10.20;74.30;;;;;;5025774;28;20483;-77
2023/10/16 03:53:35;;;;;;;2.33;1.95;;;10.20;74.40;;;;;;5028839;28;20029;-76
2023/10/16 03:56:03;;;;;;;1.85;1.70;;;10.20;74.30;;;;;;5011004;28;20482;-76
2023/10/16 03:58:33;;;;;;;2.22;1.77;;;10.20;74.30;;;;;;5026479;28;20034;-75
2023/10/16 04:01:07;;;;;;;2.45;1.75;;;10.20;74.30;;;;;;5026130;28;20063;-75
2023/10/16 04:03:46;;;;;;;2.47;2.00;;;10.20;74.30;;;;;;5025739;28;20073;-76
2023/10/16 04:06:12;;;;;;;1.83;1.73;;;10.20;74.30;;;;;;5010777;28;20029;-76
2023/10/16 04:08:38;;;;;;;1.52;1.42;;;10.20;74.30;;;;;;5027019;28;20037;-76
2023/10/16 04:11:04;;;;;;;2.58;2.00;;;10.20;74.30;;;;;;5025712;28;20039;-75
2023/10/16 04:13:32;;;;;;;2.58;2.00;;;10.20;74.40;;;;;;5026460;28;20398;-76
2023/10/16 04:21:37;;;;;;;2.40;1.80;;;10.20;74.40;;;;;;5019265;28;20103;-77
2023/10/16 04:31:45;;;;;;;2.38;1.85;;;10.20;74.40;;;;;;5026085;28;20033;-76
2023/10/16 04:47:56;;;;;;;1.85;1.70;;;10.20;74.40;;;;;;5027318;28;20031;-76
2023/10/16 04:53:11;;;;;;;2.88;2.00;;;10.30;74.50;;;;;;5031664;28;20033;-76
2023/10/16 06:14:34;;;;;;;3.08;1.88;;;10.40;74.60;;;;;;5027465;28;20036;-76
2023/10/16 06:17:00;;;;;;;1.92;1.70;;;10.30;74.50;;;;;;5033872;28;20152;-75
2023/10/16 06:19:26;;;;;;;2.47;1.75;;;10.40;74.60;;;;;;5052521;28;20037;-75
2023/10/16 06:21:56;;;;;;;2.33;1.83;;;10.40;74.60;;;;;;5042953;28;20033;-75
2023/10/16 06:26:55;;;;;;;2.70;1.65;;;10.40;74.60;;;;;;5043304;28;20033;-75
2023/10/16 06:29:24;;;;;;;1.98;1.77;;;10.40;74.60;;;;;;5033426;28;20393;-75
2023/10/16 06:31:58;;;;;;;2.30;1.70;;;10.40;74.60;;;;;;5043754;28;20110;-75
2023/10/16 06:34:24;;;;;;;2.17;1.90;;;10.40;74.60;;;;;;5044523;28;20367;-75
2023/10/16 06:36:55;;;;;;;2.35;1.85;;;10.40;74.60;;;;;;5023192;28;20038;-76
2023/10/16 06:39:28;;;;;;;2.17;1.60;;;10.40;74.60;;;;;;5018722;28;20474;-76
2023/10/16 06:41:55;;;;;;;3.88;2.13;;;10.40;74.60;;;;;;5027806;28;20210;-75
2023/10/16 06:44:29;;;;;;;2.55;1.95;;;10.50;74.70;;;;;;5028927;28;20415;-76
2023/10/16 06:46:59;;;;;;;2.00;1.80;;;10.50;74.70;;;;;;5043647;28;20033;-75
2023/10/16 06:49:35;;;;;;;2.65;1.98;;;10.50;74.70;;;;;;5040509;28;20043;-75
2023/10/16 06:52:05;;;;;;;2.13;1.85;;;10.50;74.70;;;;;;5045076;28;20116;-75
2023/10/16 06:54:37;;;;;;;2.90;2.00;;;10.50;74.70;;;;;;5043287;28;20461;-75
2023/10/16 06:57:12;;;;;;;2.00;1.80;;;10.50;74.70;;;;;;5033515;28;20034;-75
2023/10/16 06:59:42;;;;;;;2.38;1.83;;;10.50;74.70;;;;;;5034571;28;20152;-75
2023/10/16 07:02:15;;;;;;;3.65;1.88;;;10.50;74.70;;;;;;5045857;28;20026;-75
2023/10/16 07:04:44;;;;;;;1.90;1.70;;;10.50;74.70;;;;;;5029948;28;20049;-76
2023/10/16 07:07:17;;;;;;;3.20;2.70;;;10.50;74.70;;;;;;5031788;28;20046;-75
2023/10/16 07:09:47;;;;;;;2.88;2.00;;;10.50;74.60;;;;;;5037755;28;20041;-75
2023/10/16 07:12:16;;;;;;;2.63;1.90;;;10.50;74.70;;;;;;5040358;28;20048;-75
2023/10/16 07:14:55;;;;;;;2.30;1.90;;;10.50;74.70;;;;;;5036500;28;20025;-76
2023/10/16 07:17:24;;;;;;;2.47;1.98;;;10.60;74.70;;;;;;5024882;28;20462;-75
2023/10/16 07:19:55;;;;;;;2.00;1.77;;;10.60;74.70;;;;;;5023556;28;20135;-75
2023/10/16 07:22:22;;;;;;;2.63;1.92;;;10.60;74.70;;;;;;5052128;28;20533;-75
2023/10/16 07:24:47;;;;;;;2.83;1.77;;;10.60;74.70;;;;;;5036474;28;20493;-79
2023/10/16 07:27:13;;;;;;;2.45;1.88;;;10.60;74.70;;;;;;5013424;28;20063;-76
2023/10/16 07:29:42;;;;;;;2.70;1.88;;;10.60;74.70;;;;;;5039381;28;20120;-75
2023/10/16 07:32:08;;;;;;;2.03;1.80;;;10.60;74.70;;;;;;5042689;28;20470;-76
2023/10/16 07:34:38;;;;;;;2.47;1.98;;;10.60;74.70;;;;;;5000129;28;20034;-75
2023/10/16 07:37:07;;;;;;;2.95;2.05;;;10.60;74.80;;;;;;5040127;28;20039;-78
2023/10/16 07:39:34;;;;;;;2.95;2.00;;;10.60;74.70;;;;;;4997681;28;20434;-75
2023/10/16 07:42:02;;;;;;;2.50;1.90;;;10.70;74.80;;;;;;5035355;28;20037;-76
2023/10/16 07:44:28;;;;;;;2.00;1.80;;;10.70;74.80;;;;;;5035497;28;20023;-76
2023/10/16 07:46:54;;;;;;;2.40;1.95;;;10.70;74.80;;;;;;5037978;28;20393;-75
2023/10/16 07:49:25;;;;;;;1.70;1.60;;;10.70;74.80;;;;;;5035660;28;20034;-75
2023/10/16 07:51:55;;;;;;;2.20;2.00;;;10.70;74.80;;;;;;5038700;28;20037;-76
2023/10/16 07:54:21;;;;;;;2.63;2.00;;;10.70;74.80;;;;;;5040312;28;20033;-75
2023/10/16 07:56:50;;;;;;;2.42;1.90;;;10.70;74.70;;;;;;5018919;28;20025;-75
2023/10/16 07:59:19;;;;;;;2.47;2.00;;;10.80;74.80;;;;;;5035842;28;20049;-76
2023/10/16 08:01:49;;;;;;;2.70;2.13;;;10.80;74.80;;;;;;5033253;28;20087;-75
2023/10/16 08:04:36;;;;;;;2.08;1.90;;;10.80;74.80;;;;;;5034638;28;20049;-76
2023/10/16 08:07:05;;;;;;;1.70;1.60;;;10.80;74.80;;;;;;5052828;28;20038;-75
2023/10/16 08:12:12;;;;;;;2.45;1.88;;;10.80;74.70;;;;;;5031992;28;20112;-75
2023/10/16 08:14:42;;;;;;;1.88;1.73;;;10.90;74.80;;;;;;5037211;28;20072;-75
2023/10/16 08:17:17;;;;;;;3.00;2.00;;;10.90;74.80;;;;;;5033283;28;20029;-76
2023/10/16 08:19:49;;;;;;;2.22;1.73;;;10.90;74.80;;;;;;5040912;28;20037;-76
2023/10/16 08:22:15;;;;;;;1.90;1.73;;;10.90;74.80;;;;;;5041587;28;20079;-75
2023/10/16 08:24:57;;;;;;;2.60;1.90;;;10.90;74.70;;;;;;5011365;28;20034;-76
2023/10/16 08:27:40;;;;;;;2.03;1.70;;;10.90;74.80;;;;;;5036936;28;20470;-76
2023/10/16 08:30:32;;;;;;;2.00;1.65;;;10.90;74.70;;;;;;5035177;28;20060;-75
2023/10/16 08:33:08;;;;;;;2.15;1.70;;;11.00;74.80;;;;;;5040618;28;20500;-76
2023/10/16 08:35:41;;;;;;;2.40;2.05;;;11.00;74.70;;;;;;5022257;28;20033;-75
2023/10/16 08:38:12;;;;;;;3.20;2.10;;;11.00;74.70;;;;;;5032725;28;20049;-75
2023/10/16 08:40:44;;;;;;;2.15;1.77;;;11.00;74.80;;;;;;5020002;28;20064;-75
2023/10/16 08:43:10;;;;;;;1.88;1.55;;;11.00;74.80;;;;;;5040547;28;20043;-75
2023/10/16 08:45:48;;;;;;;1.70;1.60;;;11.10;74.80;;;;;;5043573;28;20025;-75
2023/10/16 08:48:17;;;;;;;2.50;2.00;;;11.10;74.80;;;;;;5037019;28;20417;-75
2023/10/16 08:50:52;;;;;;;2.67;2.03;;;11.10;74.80;;;;;;5049289;28;20033;-75
2023/10/16 08:53:31;;;;;;;3.15;2.30;;;11.20;74.80;;;;;;5034528;28;20338;-75
2023/10/16 08:56:03;;;;;;;3.22;1.88;;;11.20;74.80;;;;;;5007538;28;20112;-77
2023/10/16 08:58:44;;;;;;;2.10;1.80;;;11.20;74.80;;;;;;5035179;28;20378;-76
2023/10/16 09:01:13;;;;;;;2.17;1.92;;;11.20;74.80;;;;;;5013465;28;20494;-77
2023/10/16 09:03:54;;;;;;;2.10;1.80;;;11.30;74.80;;;;;;5044705;28;20533;-78
2023/10/16 09:06:22;;;;;;;1.90;1.70;;;11.30;74.90;;;;;;5039348;28;20193;-76
2023/10/16 09:08:49;;;;;;;1.90;1.67;;;11.40;74.80;;;;;;5030864;28;20060;-76
2023/10/16 09:11:16;;;;;;;2.10;1.90;;;11.40;74.80;;;;;;5028980;28;20394;-78
2023/10/16 09:13:51;;;;;;;1.98;1.75;;;11.40;74.80;;;;;;5030521;28;20103;-77
2023/10/16 09:16:23;;;;;;;;;;;11.50;74.80;;;;;;5035120;28;20021;-76
2023/10/16 09:18:53;;;;;;;2.50;2.00;;;11.50;74.60;;;;;;5041482;28;19905;-75
2023/10/16 09:21:28;;;;;;;1.83;1.70;;;11.60;74.50;;;;;;5037579;28;20052;-75
2023/10/16 09:24:00;;;;;;;;;;;11.60;74.50;;;;;;5034329;28;20026;-76
2023/10/16 09:26:32;;;;;;;2.08;1.75;;;11.60;74.30;;;;;;5040714;28;19909;-76
2023/10/16 09:29:04;;;;;;;1.73;1.63;;;11.70;74.30;;;;;;5051756;28;20489;-76
2023/10/16 09:31:31;;;;;;;2.42;1.60;;;11.80;74.40;;;;;;5046501;28;20422;-75
2023/10/16 09:33:57;;;;;;;1.70;1.48;;;11.80;74.50;;;;;;5033657;28;20060;-76
2023/10/16 09:36:29;;;;;;;2.35;1.88;;;11.80;74.50;;;;;;5029716;28;20034;-76
2023/10/16 09:38:59;;;;;;;2.25;1.90;;;11.90;74.50;;;;;;5043536;28;20034;-77
2023/10/16 09:43:56;;;;;;;2.03;1.83;;;12.00;74.50;;;;;;5050370;28;20041;-76
2023/10/16 09:49:10;;;;;;;2.25;1.90;;;12.10;74.60;;;;;;5023922;28;20033;-75
2023/10/16 09:51:36;;;;;;;1.95;1.63;;;12.10;74.50;;;;;;5043207;28;20033;-75
2023/10/16 09:54:02;;;;;;;2.40;1.83;;;12.20;74.50;;;;;;5041790;28;20030;-77
2023/10/16 09:56:40;;;;;;;2.25;1.85;;;12.20;74.50;;;;;;5039248;28;20127;-77
2023/10/16 09:59:17;;;;;;;2.47;1.75;;;12.30;74.60;;;;;;5023102;28;20033;-76
2023/10/16 10:01:44;;;;;;;2.50;1.70;;;12.30;74.50;;;;;;5038659;28;20398;-76
2023/10/16 10:04:11;;;;;;;2.22;1.95;;;12.40;74.50;;;;;;5040969;28;20439;-75
2023/10/16 10:06:42;;;;;;;2.38;1.80;;;12.40;74.50;;;;;;5041425;28;20039;-76
2023/10/16 10:11:39;;;;;;;2.17;1.63;;;12.50;74.60;;;;;;5044172;28;20038;-76
2023/10/16 10:14:32;;;;;;;1.88;1.50;;;12.50;74.60;;;;;;5045749;28;20061;-76
2023/10/16 10:17:01;;;;;;;2.20;1.67;;;12.50;74.60;;;;;;5044441;28;20025;-75
2023/10/16 10:19:36;;;;;;;1.60;1.42;;;12.60;74.60;;;;;;5043140;28;20460;-75
2023/10/16 10:22:18;;;;;;;2.05;1.70;;;12.60;74.60;;;;;;5043337;28;20034;-75
2023/10/16 10:24:56;;;;;;;1.60;1.40;;;12.70;74.80;;;;;;5046912;28;20029;-76
2023/10/16 10:27:22;;;;;;;2.42;1.77;;;12.70;74.60;;;;;;5021363;28;20033;-76
2023/10/16 10:29:48;;;;;;;1.83;1.60;;;12.80;74.60;;;;;;5039659;28;20033;-76
2023/10/16 10:32:14;;;;;;;1.60;1.50;;;12.80;74.60;;;;;;5016163;28;20028;-75
2023/10/16 10:34:42;;;;;;;1.83;1.55;;;12.80;74.60;;;;;;5040483;28;20030;-76
2023/10/16 10:37:51;;;;;;;1.60;1.35;;;12.90;74.70;;;;;;5043141;28;20034;-76
2023/10/16 10:40:24;;;;;;;2.47;1.45;;;12.90;74.80;;;;;;5035885;28;20038;-75
2023/10/16 10:43:02;;;;;;;1.50;1.40;;;12.90;74.60;;;;;;5041238;28;20037;-76
2023/10/16 10:45:35;;;;;;;1.45;1.27;;;13.00;74.80;;;;;;5040714;28;20032;-76
2023/10/16 10:48:10;;;;;;;2.45;1.27;;;13.00;75.40;;;;;;5040822;28;20466;-76
2023/10/16 10:50:40;;;;;;;1.40;1.30;;;13.10;74.80;;;;;;5035076;28;20456;-75
2023/10/16 10:53:15;;;;;;;1.98;1.33;;;13.10;74.80;;;;;;5035303;28;20739;-75
2023/10/16 10:55:55;;;;;;;1.48;1.30;;;13.10;74.80;;;;;;5025882;28;20022;-75
2023/10/16 10:58:25;;;;;;;1.33;1.23;;;13.20;74.80;;;;;;5042068;28;20106;-75
2023/10/16 11:00:51;;;;;;;2.20;1.33;;;13.20;74.80;;;;;;5027876;28;20045;-75
2023/10/16 11:03:22;;;;;;;1.40;1.30;;;13.20;74.80;;;;;;5019432;28;20171;-75
2023/10/16 11:05:50;;;;;;;2.00;1.45;;;13.30;74.80;;;;;;5030807;28;20056;-75
2023/10/16 11:08:17;;;;;;;1.30;1.20;;;13.30;74.80;;;;;;5039433;28;20475;-78
2023/10/16 11:10:46;;;;;;;2.20;1.50;;;13.30;74.80;;;;;;5039016;28;20116;-75
2023/10/16 11:13:14;;;;;;;1.00;1.00;;;13.40;74.80;;;;;;5010650;28;20034;-75
2023/10/16 11:15:54;;;;;;;1.30;1.20;;;13.40;74.80;;;;;;5028633;28;20076;-75
2023/10/16 11:18:22;;;;;;;1.52;1.20;;;13.40;74.80;;;;;;5043121;28;20369;-75
2023/10/16 11:20:49;;;;;;;1.30;1.20;;;13.40;74.70;;;;;;5037087;28;20075;-76
2023/10/16 11:23:17;;;;;;;1.85;1.40;;;13.50;74.80;;;;;;5032896;28;20065;-75
2023/10/16 11:25:50;;;;;;;1.60;1.30;;;13.50;74.70;;;;;;5035857;28;20033;-76
2023/10/16 11:28:21;;;;;;;1.48;1.17;;;13.50;74.70;;;;;;5039622;28;20069;-77
2023/10/16 11:30:49;;;;;;;1.23;1.13;;;13.60;74.70;;;;;;5044455;28;20040;-76
2023/10/16 11:33:44;;;;;;;1.17;1.17;;;13.60;74.70;;;;;;5035283;28;20029;-77
2023/10/16 11:36:13;;;;;;;1.00;1.00;;;13.60;74.80;;;;;;5035814;28;20029;-78
2023/10/16 11:38:40;;;;;;;1.27;1.10;;;13.60;74.60;;;;;;4998906;28;20406;-78
2023/10/16 11:41:12;;;;;;;1.98;1.10;;;13.70;74.70;;;;;;5041406;28;20029;-78
2023/10/16 11:43:46;;;;;;;1.33;1.10;;;13.70;74.70;;;;;;5012057;28;20394;-78
2023/10/16 11:46:28;;;;;;;1.48;1.20;;;13.70;74.60;;;;;;5005690;28;20069;-75
2023/10/16 11:48:58;;;;;;;0.98;0.90;;;13.80;74.60;;;;;;5033466;28;20026;-75
2023/10/16 11:51:27;;;;;;;0.93;0.93;;;13.80;74.60;;;;;;5034958;28;20469;-75
2023/10/16 11:53:59;;;;;;;0.90;0.90;;;13.80;74.60;;;;;;5034741;28;20025;-75
2023/10/16 11:56:25;;;;;;;1.00;0.95;;;13.90;74.60;;;;;;5039134;28;20113;-75
2023/10/16 11:58:54;;;;;;;1.10;1.00;;;13.90;74.50;;;;;;5047019;28;20033;-76
2023/10/16 12:01:20;;;;;;;1.02;0.93;;;13.90;74.60;;;;;;5037455;28;20039;-75
2023/10/16 12:03:46;;;;;;;1.15;1.05;;;14.00;74.60;;;;;;5047108;28;20037;-75
2023/10/16 12:06:13;;;;;;;1.00;1.00;;;14.00;74.50;;;;;;5019726;28;20044;-75
2023/10/16 12:08:44;;;;;;;1.77;1.08;;;14.00;74.50;;;;;;5032350;28;20040;-77
2023/10/16 12:11:14;;;;;;;0.90;0.90;;;14.00;74.50;;;;;;5025668;28;20041;-76
2023/10/16 12:13:43;;;;;;;1.23;1.13;;;14.10;74.40;;;;;;5040044;28;20032;-76
2023/10/16 12:16:09;;;;;;;1.83;1.00;;;14.10;74.40;;;;;;5042421;28;20017;-76
2023/10/16 12:18:34;;;;;;;1.60;1.15;;;14.10;74.50;;;;;;5025595;28;20029;-75
2023/10/16 12:21:06;;;;;;;1.50;1.02;;;14.20;74.50;;;;;;5027608;28;20026;-76
2023/10/16 12:23:34;;;;;;;1.10;0.90;;;14.10;74.40;;;;;;5039179;28;20034;-77
2023/10/16 12:26:01;;;;;;;1.50;0.90;;;14.20;74.30;;;;;;5040677;28;20048;-75
2023/10/16 12:28:28;;;;;;;1.75;1.10;;;14.20;74.30;;;;;;5032102;28;20029;-76
2023/10/16 12:30:57;;;;;;;0.93;0.93;;;14.20;74.30;;;;;;5036137;28;20042;-75
2023/10/16 12:33:26;;;;;;;1.13;1.02;;;14.30;74.30;;;;;;5009165;28;20063;-75
2023/10/16 12:35:55;;;;;;;1.15;0.90;;;14.30;74.40;;;;;;5037121;28;20021;-75
2023/10/16 12:38:24;;;;;;;0.90;0.90;;;14.40;74.20;;;;;;5022607;28;20057;-74
2023/10/16 12:40:53;;;;;;;0.80;0.80;;;14.40;74.20;;;;;;5021921;28;20132;-75
2023/10/16 12:43:20;;;;;;;0.93;0.90;;;14.40;74.10;;;;;;5041408;28;20333;-75
2023/10/16 12:45:47;;;;;;;0.98;0.95;;;14.40;74.10;;;;;;5035019;28;20033;-75
2023/10/16 12:48:14;;;;;;;1.17;0.90;;;14.50;74.10;;;;;;5017367;28;20037;-77
2023/10/16 12:50:39;;;;;;;0.90;0.90;;;14.50;74.00;;;;;;5019156;28;20037;-75
2023/10/16 12:53:06;;;;;;;0.90;0.90;;;14.50;73.90;;;;;;5030303;28;20088;-75
2023/10/16 12:55:32;;;;;;;1.08;0.90;;;14.50;73.90;;;;;;5029925;28;20087;-75
2023/10/16 12:57:58;;;;;;;0.98;0.98;;;14.50;73.80;;;;;;5017732;28;20025;-74
2023/10/16 13:00:24;;;;;;;0.80;0.80;;;14.60;73.80;;;;;;5007592;28;20041;-75
2023/10/16 13:02:51;;;;;;;0.80;0.80;;;14.60;73.80;;;;;;5045575;28;20196;-75
2023/10/16 13:05:18;;;;;;;1.10;1.00;;;14.60;73.60;;;;;;5043248;28;20038;-75
2023/10/16 13:07:47;;;;;;;0.82;0.82;;;14.60;73.60;;;;;;5027222;28;20061;-76
2023/10/16 13:10:26;;;;;;;1.27;0.90;;;14.60;73.50;;;;;;5036588;28;20029;-75
2023/10/16 13:12:51;;;;;;;0.90;0.90;;;14.70;73.60;;;;;;5033511;28;20484;-76
2023/10/16 13:15:29;;;;;;;0.80;0.80;;;14.70;73.40;;;;;;5022211;28;20030;-75
2023/10/16 13:17:56;;;;;;;1.33;0.80;;;14.70;73.40;;;;;;5029718;28;20056;-75
2023/10/16 13:20:28;;;;;;;1.05;0.90;;;14.70;73.30;;;;;;5040972;28;20025;-75
2023/10/16 13:22:55;;;;;;;1.33;0.88;;;14.80;73.40;;;;;;5035996;28;20041;-76
2023/10/16 13:25:34;;;;;;;0.88;0.75;;;14.80;73.40;;;;;;5038057;28;20151;-76
2023/10/16 13:28:00;;;;;;;1.08;1.00;;;14.90;73.40;;;;;;5056637;28;20026;-75
2023/10/16 13:30:26;;;;;;;1.05;0.90;;;14.80;73.30;;;;;;5037965;28;20044;-75
2023/10/16 13:32:54;;;;;;;0.80;0.80;;;14.80;73.20;;;;;;5041412;28;20120;-75
2023/10/16 13:35:20;;;;;;;0.70;0.70;;;14.90;73.30;;;;;;5019917;28;20327;-77
2023/10/16 13:37:48;;;;;;;0.70;0.70;;;14.90;73.20;;;;;;5018562;28;20038;-75
2023/10/16 13:40:21;;;;;;;0.80;0.80;;;14.90;73.20;;;;;;5033126;28;20048;-76
2023/10/16 13:42:51;;;;;;;0.70;0.70;;;14.90;73.10;;;;;;5025396;28;20037;-76
2023/10/16 13:45:18;;;;;;;1.00;0.80;;;15.00;73.10;;;;;;5026334;28;20092;-76
2023/10/16 13:47:45;;;;;;;0.80;0.80;;;15.00;73.10;;;;;;5021333;28;20101;-74
2023/10/16 13:50:24;;;;;;;0.80;0.80;;;15.10;73.10;;;;;;5024646;28;20037;-78
2023/10/16 13:52:51;;;;;;;0.80;0.80;;;15.10;73.00;;;;;;5016432;28;20044;-75
2023/10/16 13:55:24;;;;;;;0.88;0.80;;;15.10;72.90;;;;;;5039294;28;20036;-74
2023/10/16 13:57:51;;;;;;;0.70;0.70;;;15.10;72.90;;;;;;5020893;28;20092;-75
2023/10/16 14:00:38;;;;;;;0.80;0.80;;;15.20;72.90;;;;;;5049562;28;20033;-75
2023/10/16 14:03:16;;;;;;;0.70;0.70;;;15.20;72.80;;;;;;5035962;28;20025;-74
2023/10/16 14:05:47;;;;;;;0.63;0.63;;;15.20;72.80;;;;;;5034091;28;20425;-75
2023/10/16 14:08:17;;;;;;;0.70;0.70;;;15.20;72.70;;;;;;5041461;28;20026;-74
2023/10/16 14:10:52;;;;;;;0.80;0.80;;;15.20;72.70;;;;;;5035315;28;20489;-75
2023/10/16 14:13:19;;;;;;;0.68;0.68;;;15.20;72.70;;;;;;5032759;28;20067;-74
2023/10/16 14:15:52;;;;;;;0.73;0.70;;;15.20;72.70;;;;;;5021564;28;20483;-75
2023/10/16 14:18:21;;;;;;;0.65;0.65;;;15.30;72.70;;;;;;5044110;28;20063;-75
2023/10/16 14:20:51;;;;;;;1.02;0.90;;;15.30;72.70;;;;;;5031404;28;20034;-76
2023/10/16 14:23:19;;;;;;;0.60;0.60;;;15.30;72.60;;;;;;5041320;28;20386;-76
2023/10/16 14:25:48;;;;;;;0.85;0.70;;;15.30;72.60;;;;;;5043645;28;20029;-76
2023/10/16 14:28:41;;;;;;;0.80;0.80;;;15.30;72.50;;;;;;5044331;28;20040;-75
2023/10/16 14:31:07;;;;;;;0.60;0.60;;;15.30;72.50;;;;;;5047737;28;20048;-76
2023/10/16 14:33:33;;;;;;;0.70;0.70;;;15.40;72.50;;;;;;5039024;28;20021;-76
2023/10/16 14:36:02;;;;;;;0.75;0.75;;;15.40;72.40;;;;;;5044227;28;20343;-75
2023/10/16 14:38:28;;;;;;;0.80;0.80;;;15.40;72.40;;;;;;5041591;28;20028;-74
2023/10/16 14:41:08;;;;;;;1.00;0.90;;;15.40;72.50;;;;;;5034545;28;20038;-75
2023/10/16 14:43:36;;;;;;;0.80;0.80;;;15.40;72.40;;;;;;5037709;28;20037;-75
2023/10/16 14:46:12;;;;;;;1.05;0.70;;;15.40;72.30;;;;;;5039937;28;20466;-75
2023/10/16 14:48:41;;;;;;;0.88;0.80;;;15.40;72.40;;;;;;5033255;28;20028;-75
2023/10/16 14:51:06;;;;;;;1.00;0.90;;;15.40;72.30;;;;;;5038600;28;20471;-76
2023/10/16 14:53:35;;;;;;;0.80;0.80;;;15.50;72.30;;;;;;5040278;28;20033;-76
2023/10/16 14:56:01;;;;;;;0.88;0.80;;;15.50;72.30;;;;;;5044301;28;20116;-75
2023/10/16 14:58:27;;;;;;;0.85;0.85;;;15.50;72.20;;;;;;5036464;28;20056;-76
2023/10/16 15:00:56;;;;;;;1.33;0.80;;;15.50;72.10;;;;;;5017685;28;20110;-76
2023/10/16 15:03:22;;;;;;;0.73;0.73;;;15.50;72.10;;;;;;5045167;28;20095;-75
2023/10/16 15:05:49;;;;;;;1.20;0.80;;;15.50;72.10;;;;;;5048348;28;20048;-75
2023/10/16 15:08:15;;;;;;;0.80;0.80;;;15.50;72.00;;;;;;5032930;28;20112;-75
2023/10/16 15:10:43;;;;;;;0.98;0.88;;;15.60;72.00;;;;;;5041882;28;20086;-81